Impacts TAF Board
For situational awareness. Not to be used for flight planning purposes.
IDs:

KATL - Atlanta/Hartsfield I, GA, US

Issued at 0159 UTC 03 Jul 2022
Updated at 0503 UTC 03 Jul 2022
Potential Impact None Slight Moderate High
Time0452Z 03/06Z 03/07Z 03/08Z 03/09Z 03/10Z 03/11Z 03/12Z 03/13Z 03/14Z 03/15Z 03/16Z 03/17Z 03/18Z>>
Type OBS PRVL PRVL PRVL PRVL PRVL PRVL PRVL PRVL PRVL PRVL PRVL PRVL
  [PRB30]  
PRVL
  [PRB30]  
VIS 10 >6 >6 >6 >6 >6 >6 >6 >6 >6 >6 >6 >6
  [3]  
>6
  [3]  
CIG -- -- -- -- -- -- -- -- -- -- -- -- --
  [35]  
--
  [35]  
Cover FEW SCT SCT SCT SCT SCT SCT SCT SCT SCT SCT SCT SCT
  [BKN]  
SCT
  [BKN]  
FltCat VFR VFR VFR VFR VFR VFR VFR VFR VFR VFR VFR VFR VFR
  [MVFR]  
VFR
  [MVFR]  
WX -- -- -- -- -- -- -- -- -- -- -- -- --
  [TSRA BR]  
--
  [TSRA BR]  
WDir 260 270 270 270 270 270 270 270 270 270 300 300 290
[290]
290
[290]
WSpd 5 3 3 3 3 3 3 3 3 3 5 5 6
  [6]  
6
  [6]  
WGst -- -- -- -- -- -- -- -- -- -- -- -- --
  [--]  
--
  [--]  
WSHgt -- -- -- -- -- -- -- -- -- -- -- -- --
[--]
--
[--]
WSDir -- -- -- -- -- -- -- -- -- -- -- -- --
[--]
--
[--]
WSSpd -- -- -- -- -- -- -- -- -- -- -- -- --
[--]
--
[--]
Raw TAF
KATL 030159Z 0302/0406 31008KT P6SM VCSH SCT040 SCT200
  FM030300 27003KT P6SM SCT200
  FM031500 30005KT P6SM FEW025 SCT040
  FM031700 29006KT P6SM SCT040
  PROB30 0317/0323 3SM TSRA BR BKN035CB
  FM040000 29005KT P6SM FEW040 BKN080
  FM040500 28003KT P6SM SCT250


Raw METAR
KATL 030452Z 26005KT 10SM FEW200 26/22 A3005 RMK AO2 SLP165 T02610217 403280222 $
KATL 030352Z 00000KT 10SM FEW065 FEW180 27/22 A3007 RMK AO2 LTG DSNT E SLP170 CB DSNT E T02670222 $
KATL 030252Z 25004KT 10SM FEW065 SCT180 SCT250 27/22 A3007 RMK AO2 LTG DSNT E SLP170 CB DSNT E T02720217 51017 $

METAR Board
Radar Display
Forecast Discussion
For situational awareness. Not to be used for flight planning purposes.